createdAt,value
2016-11-26T00:00:17.848Z,20.46
2016-11-26T00:01:30.792Z,20.37
2016-11-26T00:02:43.807Z,20.34
2016-11-26T00:03:56.275Z,20.42
2016-11-26T00:05:08.197Z,20.46
2016-11-26T00:06:21.700Z,20.44
2016-11-26T00:07:35.199Z,20.46
2016-11-26T00:08:48.123Z,20.49
2016-11-26T00:10:01.116Z,20.5
2016-11-26T00:11:13.038Z,20.5
2016-11-26T00:12:25.524Z,20.5
2016-11-26T00:13:38.514Z,20.53
2016-11-26T00:14:51.484Z,20.53
2016-11-26T00:16:04.419Z,20.48
2016-11-26T00:17:16.876Z,20.46
2016-11-26T00:18:28.821Z,20.53
2016-11-26T00:19:42.332Z,20.53
2016-11-26T00:20:55.326Z,20.63
2016-11-26T00:22:08.317Z,20.6
2016-11-26T00:23:21.456Z,20.68
2016-11-26T00:24:33.930Z,20.71
2016-11-26T00:25:45.820Z,20.65
2016-11-26T00:26:58.794Z,20.8
2016-11-26T00:28:11.226Z,20.79
2016-11-26T00:29:23.171Z,20.7
2016-11-26T00:30:36.667Z,20.73
2016-11-26T00:31:49.151Z,20.75
2016-11-26T00:33:02.755Z,20.8
2016-11-26T00:34:15.218Z,20.77
2016-11-26T00:35:27.699Z,20.74
2016-11-26T00:36:40.152Z,20.74
2016-11-26T00:37:53.731Z,20.74
2016-11-26T00:39:38.361Z,20.74
2016-11-26T00:40:50.320Z,20.8
2016-11-26T00:42:02.780Z,20.77
2016-11-26T00:43:15.227Z,20.8
2016-11-26T00:44:28.772Z,20.74
2016-11-26T00:45:41.252Z,20.77
2016-11-26T00:46:52.685Z,20.75
2016-11-26T00:48:05.156Z,20.75
2016-11-26T00:49:18.155Z,20.68
2016-11-26T00:51:02.255Z,20.7
2016-11-26T00:52:15.232Z,20.74
2016-11-26T00:53:27.660Z,20.75
2016-11-26T00:54:40.671Z,20.77
2016-11-26T00:55:52.602Z,20.73
2016-11-26T00:57:04.597Z,20.74
2016-11-26T00:58:17.067Z,20.74
2016-11-26T00:59:29.019Z,20.74
2016-11-26T01:00:41.975Z,20.8
2016-11-26T01:01:53.937Z,20.79
2016-11-26T01:03:06.901Z,20.75
2016-11-26T01:04:19.401Z,20.73
2016-11-26T01:05:30.277Z,20.73
2016-11-26T01:06:42.763Z,20.75
2016-11-26T01:07:54.647Z,20.74
2016-11-26T01:09:07.078Z,20.7
2016-11-26T01:10:20.036Z,20.71
2016-11-26T01:11:31.986Z,20.8
2016-11-26T01:12:44.915Z,20.68
2016-11-26T01:13:57.912Z,20.7
2016-11-26T01:15:10.437Z,20.79
2016-11-26T01:16:23.460Z,20.75
2016-11-26T01:17:36.462Z,20.79
2016-11-26T01:18:48.916Z,20.77
2016-11-26T01:20:01.397Z,20.74
2016-11-26T01:21:13.357Z,20.73
2016-11-26T01:22:26.318Z,20.75
2016-11-26T01:23:38.745Z,20.77
2016-11-26T01:24:52.210Z,20.77
2016-11-26T01:26:04.669Z,20.75
2016-11-26T01:27:17.172Z,20.75
2016-11-26T01:28:29.139Z,20.89
2016-11-26T01:29:41.619Z,20.85
2016-11-26T01:30:54.667Z,20.85
2016-11-26T01:32:07.179Z,20.83
2016-11-26T01:33:19.629Z,20.95
2016-11-26T01:34:32.095Z,21.01
2016-11-26T01:35:45.017Z,20.98
2016-11-26T01:36:57.514Z,21.07
2016-11-26T01:38:11.007Z,20.95
2016-11-26T01:39:23.973Z,20.92
2016-11-26T01:40:35.957Z,20.98
2016-11-26T01:41:49.477Z,21
2016-11-26T01:43:02.385Z,21
2016-11-26T01:44:15.327Z,20.92
2016-11-26T01:45:28.355Z,20.93
2016-11-26T01:46:40.832Z,21.03
2016-11-26T01:47:53.809Z,21.03
2016-11-26T01:49:06.784Z,21
2016-11-26T01:50:19.734Z,21.03
2016-11-26T01:51:32.204Z,20.92
2016-11-26T01:52:44.611Z,20.93
2016-11-26T01:53:57.585Z,20.92
2016-11-26T01:55:42.222Z,20.98
2016-11-26T01:56:55.716Z,20.98
2016-11-26T01:58:09.199Z,20.93
2016-11-26T01:59:21.718Z,21.01
2016-11-26T02:00:33.653Z,21.03
2016-11-26T02:01:46.663Z,21.05
2016-11-26T02:02:59.673Z,21.01
2016-11-26T02:04:12.639Z,21.01
2016-11-26T02:05:24.516Z,20.98
2016-11-26T02:06:38.045Z,21
2016-11-26T02:07:51.090Z,20.97
2016-11-26T02:09:03.590Z,21.05
2016-11-26T02:10:16.027Z,21.05
2016-11-26T02:11:28.588Z,20.98
2016-11-26T02:12:41.523Z,21.04
2016-11-26T02:13:55.033Z,21.05
2016-11-26T02:15:06.417Z,21.05
2016-11-26T02:16:19.406Z,21.05
2016-11-26T02:17:31.880Z,21.07
2016-11-26T02:18:43.825Z,21.05
2016-11-26T02:19:55.777Z,21.04
2016-11-26T02:21:08.252Z,21.05
2016-11-26T02:22:21.288Z,21.03
2016-11-26T02:23:33.248Z,21
2016-11-26T02:24:45.777Z,21.03
2016-11-26T02:25:58.814Z,21.01
2016-11-26T02:27:10.790Z,21.05
2016-11-26T02:28:23.772Z,21.07
2016-11-26T02:29:35.731Z,20.97
2016-11-26T02:30:49.270Z,20.93
2016-11-26T02:32:01.734Z,21.01
2016-11-26T02:33:14.769Z,21
2016-11-26T02:34:27.329Z,21.01
2016-11-26T02:35:39.847Z,21.05
2016-11-26T02:36:51.794Z,21.04
2016-11-26T02:38:04.250Z,21
2016-11-26T02:39:17.292Z,20.97
2016-11-26T02:40:30.320Z,20.86
2016-11-26T02:41:43.257Z,20.85
2016-11-26T02:42:56.345Z,20.77
2016-11-26T02:44:08.835Z,20.79
2016-11-26T02:45:20.831Z,20.86
2016-11-26T02:46:34.433Z,20.85
2016-11-26T02:47:47.401Z,20.75
2016-11-26T02:48:59.886Z,20.79
2016-11-26T02:50:12.358Z,20.74
2016-11-26T02:51:25.357Z,20.68
2016-11-26T02:52:37.338Z,20.8
2016-11-26T02:53:50.384Z,20.79
2016-11-26T02:55:02.339Z,20.79
2016-11-26T02:56:15.357Z,20.71
2016-11-26T02:57:28.879Z,20.67
2016-11-26T02:58:41.412Z,20.74
2016-11-26T02:59:53.867Z,20.7
2016-11-26T03:01:07.533Z,20.71
2016-11-26T03:02:19.507Z,20.7
2016-11-26T03:03:31.957Z,20.68
2016-11-26T03:04:44.987Z,20.73
2016-11-26T03:05:56.994Z,20.7
2016-11-26T03:07:09.504Z,20.68
2016-11-26T03:08:20.943Z,20.75
2016-11-26T03:09:33.488Z,20.74
2016-11-26T03:10:45.457Z,20.75
2016-11-26T03:11:58.542Z,20.74
2016-11-26T03:13:09.929Z,20.68
2016-11-26T03:14:21.827Z,20.68
2016-11-26T03:15:34.333Z,20.65
2016-11-26T03:16:46.282Z,20.67
2016-11-26T03:17:58.789Z,20.74
2016-11-26T03:19:10.775Z,20.71
2016-11-26T03:20:23.796Z,20.67
2016-11-26T03:21:35.758Z,20.65
2016-11-26T03:22:48.747Z,20.64
2016-11-26T03:24:31.820Z,20.74
2016-11-26T03:25:44.888Z,20.73
2016-11-26T03:27:28.500Z,20.71
2016-11-26T03:28:41.004Z,20.73
2016-11-26T03:29:54.017Z,20.63
2016-11-26T03:31:06.508Z,20.67
2016-11-26T03:32:19.475Z,20.63
2016-11-26T03:33:32.983Z,20.53
2016-11-26T03:34:45.462Z,20.53
2016-11-26T03:35:57.900Z,20.5
2016-11-26T03:37:10.868Z,20.49
2016-11-26T03:38:24.420Z,20.49
2016-11-26T03:39:36.334Z,20.52
2016-11-26T03:40:49.356Z,20.53
2016-11-26T03:42:02.330Z,20.49
2016-11-26T03:43:15.926Z,20.46
2016-11-26T03:44:28.395Z,20.5
2016-11-26T03:45:40.875Z,20.5
2016-11-26T03:46:54.494Z,20.41
2016-11-26T03:48:06.912Z,20.32
2016-11-26T03:49:19.338Z,20.44
2016-11-26T03:50:31.737Z,20.44
2016-11-26T03:51:44.778Z,20.32
2016-11-26T03:52:57.243Z,20.33
2016-11-26T03:54:09.722Z,20.3
2016-11-26T03:55:22.700Z,20.32
2016-11-26T03:56:33.613Z,20.29
2016-11-26T03:57:45.592Z,20.3
2016-11-26T03:58:58.146Z,20.33
2016-11-26T04:00:10.614Z,20.29
2016-11-26T04:01:23.102Z,20.19
2016-11-26T04:02:36.641Z,20.23
2016-11-26T04:03:50.175Z,20.19
2016-11-26T04:05:33.801Z,20.15
2016-11-26T04:06:46.239Z,20.15
2016-11-26T04:07:58.717Z,20.19
2016-11-26T04:09:11.191Z,20.18
2016-11-26T04:10:24.169Z,20.19
2016-11-26T04:11:35.639Z,20.15
2016-11-26T04:12:48.572Z,20.19
2016-11-26T04:13:59.939Z,20.23
2016-11-26T04:15:12.391Z,20.15
2016-11-26T04:16:25.388Z,20.17
2016-11-26T04:17:37.320Z,20.15
2016-11-26T04:18:49.827Z,20.14
2016-11-26T04:20:01.863Z,20.11
2016-11-26T04:21:14.875Z,20.07
2016-11-26T04:22:27.840Z,20.14
2016-11-26T04:23:40.770Z,20.12
2016-11-26T04:24:52.739Z,20.18
2016-11-26T04:26:04.659Z,20.12
2016-11-26T04:27:17.186Z,20.05
2016-11-26T04:28:28.619Z,20.11
2016-11-26T04:29:42.119Z,20.08
2016-11-26T04:30:55.148Z,20.07
2016-11-26T04:32:08.190Z,20.05
2016-11-26T04:33:21.227Z,20.02
2016-11-26T04:34:34.265Z,20.04
2016-11-26T04:35:46.751Z,20.07
2016-11-26T04:36:59.682Z,20.02
2016-11-26T04:38:12.118Z,20.04
2016-11-26T04:39:56.686Z,19.97
2016-11-26T04:41:09.161Z,19.99
2016-11-26T04:42:21.602Z,20.07
2016-11-26T04:43:35.153Z,19.94
2016-11-26T04:44:47.096Z,19.96
2016-11-26T04:45:58.501Z,20
2016-11-26T04:47:09.915Z,19.93
2016-11-26T04:48:23.441Z,19.96
2016-11-26T04:49:36.430Z,19.94
2016-11-26T04:50:49.894Z,19.94
2016-11-26T04:52:02.896Z,19.94
2016-11-26T04:53:16.403Z,19.99
2016-11-26T04:54:28.864Z,19.97
2016-11-26T04:55:42.355Z,19.96
2016-11-26T04:56:54.358Z,19.94
2016-11-26T04:58:07.343Z,19.96
2016-11-26T04:59:20.920Z,19.9
2016-11-26T05:00:33.397Z,19.9
2016-11-26T05:01:46.973Z,20
2016-11-26T05:02:59.983Z,19.99
2016-11-26T05:04:12.962Z,19.89
2016-11-26T05:05:24.925Z,19.84
2016-11-26T05:06:37.866Z,19.77
2016-11-26T05:07:49.782Z,19.87
2016-11-26T05:09:02.770Z,19.84
2016-11-26T05:10:46.927Z,19.82
2016-11-26T05:11:59.412Z,19.82
2016-11-26T05:13:12.401Z,19.79
2016-11-26T05:14:25.342Z,19.86
2016-11-26T05:15:37.256Z,19.86
2016-11-26T05:16:49.216Z,19.82
2016-11-26T05:18:01.765Z,19.77
2016-11-26T05:19:15.323Z,19.77
2016-11-26T05:20:28.270Z,19.71
2016-11-26T05:21:39.705Z,19.79
2016-11-26T05:22:52.188Z,19.82
2016-11-26T05:24:05.189Z,19.79
2016-11-26T05:25:16.112Z,19.7
2016-11-26T05:26:28.065Z,19.75
2016-11-26T05:27:41.034Z,19.71
2016-11-26T05:28:53.518Z,19.77
2016-11-26T05:30:06.521Z,19.71
2016-11-26T05:31:19.003Z,19.62
2016-11-26T05:32:29.920Z,19.64
2016-11-26T05:33:42.901Z,19.67
2016-11-26T05:34:55.348Z,19.62
2016-11-26T05:36:07.330Z,19.59
2016-11-26T05:37:20.331Z,19.67
2016-11-26T05:38:33.295Z,19.57
2016-11-26T05:39:45.778Z,19.56
2016-11-26T05:40:57.202Z,19.6
2016-11-26T05:42:10.723Z,19.6
2016-11-26T05:43:24.290Z,19.57
2016-11-26T05:44:36.815Z,19.62
2016-11-26T05:45:49.780Z,19.59
2016-11-26T05:47:02.260Z,19.62
2016-11-26T05:48:15.226Z,19.67
2016-11-26T05:49:27.671Z,19.64
2016-11-26T05:50:39.075Z,19.71
2016-11-26T05:51:51.596Z,19.62
2016-11-26T05:53:04.098Z,19.64
2016-11-26T05:54:16.619Z,19.59
2016-11-26T05:55:29.091Z,19.62
2016-11-26T05:56:41.625Z,19.62
2016-11-26T05:57:54.652Z,19.63
2016-11-26T05:59:07.143Z,19.59
2016-11-26T06:00:19.108Z,19.62
2016-11-26T06:01:32.115Z,19.6
2016-11-26T06:02:45.108Z,19.63
2016-11-26T06:04:29.770Z,19.63
2016-11-26T06:05:42.679Z,19.6
2016-11-26T06:06:54.636Z,19.59
2016-11-26T06:08:06.574Z,19.62
2016-11-26T06:09:17.992Z,19.64
2016-11-26T06:10:30.419Z,19.63
2016-11-26T06:11:42.853Z,19.59
2016-11-26T06:12:55.853Z,19.57
2016-11-26T06:14:08.869Z,19.56
2016-11-26T06:15:20.305Z,19.57
2016-11-26T06:16:31.646Z,19.6
2016-11-26T06:17:43.008Z,19.56
2016-11-26T06:18:56.546Z,19.56
2016-11-26T06:20:09.538Z,19.52
2016-11-26T06:21:22.010Z,19.49
2016-11-26T06:22:34.518Z,19.59
2016-11-26T06:23:46.468Z,19.42
2016-11-26T06:24:59.525Z,19.39
2016-11-26T06:26:11.477Z,19.49
2016-11-26T06:27:23.358Z,19.39
2016-11-26T06:28:35.839Z,19.35
2016-11-26T06:29:48.347Z,19.23
2016-11-26T06:31:00.344Z,19.23
2016-11-26T06:32:12.896Z,19.26
2016-11-26T06:33:26.379Z,19.22
2016-11-26T06:34:38.783Z,19.34
2016-11-26T06:35:51.945Z,19.26
2016-11-26T06:37:05.513Z,19.23
2016-11-26T06:38:18.542Z,19.17
2016-11-26T06:39:31.547Z,19.09
2016-11-26T06:40:45.118Z,19.09
2016-11-26T06:41:58.196Z,19.12
2016-11-26T06:43:11.710Z,19.12
2016-11-26T06:44:25.247Z,19.04
2016-11-26T06:45:38.293Z,19.17
2016-11-26T06:46:51.812Z,19.08
2016-11-26T06:48:04.764Z,19.17
2016-11-26T06:49:16.735Z,19.16
2016-11-26T06:50:29.790Z,19.19
2016-11-26T06:51:41.737Z,19.24
2016-11-26T06:52:55.237Z,19.22
2016-11-26T06:54:07.230Z,19.24
2016-11-26T06:55:20.229Z,19.24
2016-11-26T06:56:32.211Z,19.16
2016-11-26T06:57:44.759Z,19.2
2016-11-26T06:58:56.701Z,19.26
2016-11-26T07:00:09.202Z,19.17
2016-11-26T07:01:22.251Z,19.08
2016-11-26T07:02:34.261Z,19.08
2016-11-26T07:03:46.242Z,19.05
2016-11-26T07:04:59.816Z,18.97
2016-11-26T07:06:12.853Z,18.97
2016-11-26T07:07:25.891Z,19.04
2016-11-26T07:08:38.945Z,18.94
2016-11-26T07:09:51.462Z,18.89
2016-11-26T07:11:03.938Z,18.98
2016-11-26T07:12:16.406Z,19.05
2016-11-26T07:13:29.419Z,18.98
2016-11-26T07:14:41.391Z,19
2016-11-26T07:15:54.398Z,18.98
2016-11-26T07:17:07.386Z,19.05
2016-11-26T07:18:19.808Z,18.97
2016-11-26T07:19:32.284Z,18.98
2016-11-26T07:20:45.324Z,18.97
2016-11-26T07:21:57.819Z,18.83
2016-11-26T07:23:10.895Z,18.82
2016-11-26T07:24:23.336Z,18.85
2016-11-26T07:25:35.768Z,18.81
2016-11-26T07:26:47.665Z,18.85
2016-11-26T07:28:00.135Z,18.83
2016-11-26T07:29:12.570Z,18.81
2016-11-26T07:30:26.083Z,18.79
2016-11-26T07:31:39.615Z,18.96
2016-11-26T07:32:52.585Z,18.89
2016-11-26T07:34:04.481Z,18.88
2016-11-26T07:35:16.917Z,18.82
2016-11-26T07:36:29.888Z,18.82
2016-11-26T07:37:42.346Z,18.96
2016-11-26T07:38:54.798Z,18.88
2016-11-26T07:40:06.684Z,18.82
2016-11-26T07:41:18.605Z,18.83
2016-11-26T07:42:30.572Z,18.91
2016-11-26T07:43:41.994Z,18.83
2016-11-26T07:44:53.957Z,18.81
2016-11-26T07:46:07.027Z,18.85
2016-11-26T07:47:50.085Z,18.86
2016-11-26T07:49:03.010Z,18.85
2016-11-26T07:50:16.570Z,18.83
2016-11-26T07:51:29.082Z,18.85
2016-11-26T07:52:41.553Z,18.79
2016-11-26T07:53:53.518Z,18.82
2016-11-26T07:55:06.005Z,18.81
2016-11-26T07:56:19.012Z,18.85
2016-11-26T07:57:32.015Z,18.86
2016-11-26T07:58:45.063Z,18.83
2016-11-26T07:59:56.460Z,18.93
2016-11-26T08:01:09.437Z,18.96
2016-11-26T08:02:21.954Z,18.83
2016-11-26T08:03:35.459Z,18.89
2016-11-26T08:04:47.923Z,18.88
2016-11-26T08:05:59.831Z,18.94
2016-11-26T08:07:12.875Z,18.94
2016-11-26T08:08:24.303Z,18.91
2016-11-26T08:09:35.697Z,18.94
2016-11-26T08:10:48.651Z,19.04
2016-11-26T08:12:00.602Z,19.08
2016-11-26T08:13:13.592Z,19.08
2016-11-26T08:14:26.609Z,19.07
2016-11-26T08:15:37.996Z,19.16
2016-11-26T08:16:51.607Z,19.08
2016-11-26T08:18:05.061Z,19.08
2016-11-26T08:19:18.054Z,19.12
2016-11-26T08:20:30.001Z,19.13
2016-11-26T08:21:42.989Z,19.13
2016-11-26T08:22:55.481Z,19.05
2016-11-26T08:24:08.517Z,19.04
2016-11-26T08:25:21.002Z,19.15
2016-11-26T08:26:33.978Z,19.17
2016-11-26T08:27:46.448Z,19.07
2016-11-26T08:28:59.515Z,19.09
2016-11-26T08:30:12.486Z,19.22
2016-11-26T08:31:24.404Z,19.17
2016-11-26T08:32:38.010Z,19.26
2016-11-26T08:33:49.459Z,19.27
2016-11-26T08:35:02.452Z,19.22
2016-11-26T08:36:14.417Z,19.32
2016-11-26T08:37:27.412Z,19.44
2016-11-26T08:38:39.351Z,19.38
2016-11-26T08:39:52.329Z,19.38
2016-11-26T08:41:04.333Z,19.41
2016-11-26T08:42:17.369Z,19.38
2016-11-26T08:43:29.871Z,19.37
2016-11-26T08:44:42.354Z,19.44
2016-11-26T08:45:55.854Z,19.45
2016-11-26T08:47:08.849Z,19.52
2016-11-26T08:48:22.393Z,19.62
2016-11-26T08:49:35.911Z,19.54
2016-11-26T08:50:48.366Z,19.53
2016-11-26T08:52:01.337Z,19.52
2016-11-26T08:53:14.837Z,19.57
2016-11-26T08:54:26.773Z,19.57
2016-11-26T08:55:39.793Z,19.67
2016-11-26T08:56:52.855Z,19.57
2016-11-26T08:58:05.817Z,19.68
2016-11-26T08:59:18.804Z,19.63
2016-11-26T09:00:31.314Z,19.7
2016-11-26T09:01:43.204Z,19.75
2016-11-26T09:02:56.763Z,19.74
2016-11-26T09:04:08.157Z,19.74
2016-11-26T09:05:20.619Z,19.68
2016-11-26T09:06:33.072Z,19.6
2016-11-26T09:07:45.059Z,19.71
2016-11-26T09:08:58.128Z,19.77
2016-11-26T09:10:11.114Z,19.79
2016-11-26T09:11:24.081Z,19.97
2016-11-26T09:12:37.050Z,20.02
2016-11-26T09:13:50.030Z,20.07
2016-11-26T09:15:03.014Z,20.02
2016-11-26T09:16:16.031Z,20.08
2016-11-26T09:17:29.582Z,19.96
2016-11-26T09:18:42.031Z,19.89
2016-11-26T09:19:55.076Z,19.9
2016-11-26T09:21:08.633Z,19.97
2016-11-26T09:22:21.090Z,19.94
2016-11-26T09:23:34.617Z,19.99
2016-11-26T09:24:47.596Z,19.99
2016-11-26T09:26:01.156Z,19.99
2016-11-26T09:27:14.146Z,19.96
2016-11-26T09:28:26.081Z,20
2016-11-26T09:29:39.586Z,20.05
2016-11-26T09:30:52.680Z,20.04
2016-11-26T09:32:06.250Z,20.02
2016-11-26T09:33:50.935Z,20.14
2016-11-26T09:35:04.498Z,20.19
2016-11-26T09:36:17.495Z,20.14
2016-11-26T09:37:30.539Z,20.17
2016-11-26T09:38:44.098Z,20.34
2016-11-26T09:39:57.664Z,20.42
2016-11-26T09:41:10.645Z,20.5
2016-11-26T09:42:23.112Z,20.67
2016-11-26T09:43:35.637Z,20.71
2016-11-26T09:44:48.103Z,20.9
2016-11-26T09:46:01.117Z,20.9
2016-11-26T09:47:14.183Z,20.85
2016-11-26T09:48:26.730Z,21.05
2016-11-26T09:49:38.664Z,21.03
2016-11-26T09:50:51.167Z,21.05
2016-11-26T09:52:03.147Z,21.16
2016-11-26T09:53:15.691Z,21.25
2016-11-26T09:54:28.167Z,21.44
2016-11-26T09:55:40.642Z,21.67
2016-11-26T09:58:35.699Z,21.55
2016-11-26T09:59:47.595Z,21.45
2016-11-26T10:01:00.024Z,21.35
2016-11-26T10:02:13.078Z,21.25
2016-11-26T10:03:25.557Z,21.3
2016-11-26T10:04:38.588Z,21.13
2016-11-26T10:05:51.045Z,21.26
2016-11-26T10:07:04.022Z,21.29
2016-11-26T10:08:15.928Z,21.4
2016-11-26T10:09:28.387Z,21.45
2016-11-26T10:10:41.405Z,21.71
2016-11-26T10:11:53.340Z,22.06
2016-11-26T10:13:06.296Z,22.33
2016-11-26T10:14:19.294Z,22.62
2016-11-26T10:15:31.752Z,22.85
2016-11-26T10:16:45.322Z,23.11
2016-11-26T10:17:58.366Z,23.06
2016-11-26T10:19:12.001Z,23.18
2016-11-26T10:20:24.488Z,23.17
2016-11-26T10:21:36.420Z,23.25
2016-11-26T10:22:49.429Z,23.41
2016-11-26T10:24:01.885Z,23.28
2016-11-26T10:25:14.882Z,23.33
2016-11-26T10:26:26.798Z,23.66
2016-11-26T10:27:38.233Z,23.81
2016-11-26T10:28:50.305Z,23.96
2016-11-26T10:30:02.341Z,24.29
2016-11-26T10:31:14.769Z,24.23
2016-11-26T10:32:27.261Z,23.91
2016-11-26T10:33:40.272Z,23.79
2016-11-26T10:34:53.819Z,23.86
2016-11-26T10:36:06.296Z,24.07
2016-11-26T10:37:18.755Z,24.21
2016-11-26T10:38:30.674Z,24.23
2016-11-26T10:39:43.120Z,24.37
2016-11-26T10:42:40.280Z,24.66
2016-11-26T10:43:53.269Z,25.01
2016-11-26T10:45:06.255Z,25.3
2016-11-26T10:46:18.269Z,25.46
2016-11-26T10:47:30.734Z,25.27
2016-11-26T10:48:43.175Z,25.12
2016-11-26T10:49:55.629Z,24.78
2016-11-26T10:51:08.096Z,24.81
2016-11-26T10:52:20.564Z,24.94
2016-11-26T10:53:33.634Z,25.03
2016-11-26T10:54:47.442Z,25.08
2016-11-26T11:20:07.105Z,24.43
2016-11-26T11:21:20.056Z,24.55
2016-11-26T11:22:33.045Z,24.78
2016-11-26T11:23:46.071Z,24.86
2016-11-26T11:24:59.072Z,25.06
2016-11-26T11:26:12.637Z,25.46
2016-11-26T11:27:25.098Z,25.75
2016-11-26T11:28:38.105Z,25.66
2016-11-26T11:29:51.606Z,25.63
2016-11-26T11:31:03.570Z,25.53
2016-11-26T11:32:16.094Z,25.53
2016-11-26T11:33:29.635Z,25.74
2016-11-26T11:34:42.126Z,25.98
2016-11-26T11:35:54.643Z,26.11
2016-11-26T11:37:07.702Z,25.9
2016-11-26T11:38:20.253Z,25.68
2016-11-26T11:39:33.838Z,25.53
2016-11-26T11:40:46.856Z,25.56
2016-11-26T11:41:59.372Z,25.88
2016-11-26T11:43:12.398Z,25.9
2016-11-26T11:44:24.887Z,25.96
2016-11-26T11:45:37.922Z,25.89
2016-11-26T11:46:50.915Z,26.04
2016-11-26T11:48:03.412Z,25.78
2016-11-26T11:49:16.408Z,25.66
2016-11-26T11:50:29.979Z,25.58
2016-11-26T11:51:42.995Z,25.56
2016-11-26T11:52:56.037Z,25.7
2016-11-26T11:54:09.037Z,25.93
2016-11-26T11:55:22.019Z,26.15
2016-11-26T11:56:35.554Z,26.15
2016-11-26T11:57:48.563Z,26.24
2016-11-26T11:59:01.572Z,26.36
2016-11-26T12:00:15.129Z,26.43
2016-11-26T12:01:28.692Z,26.56
2016-11-26T12:02:41.676Z,26.42
2016-11-26T12:03:55.274Z,26.3
2016-11-26T12:05:07.817Z,26.2
2016-11-26T12:06:20.839Z,26.11
2016-11-26T12:07:33.314Z,26.12
2016-11-26T12:08:45.765Z,26.24
2016-11-26T12:09:57.790Z,26.24
2016-11-26T12:11:10.829Z,26.21
2016-11-26T12:12:23.835Z,26.34
2016-11-26T12:13:36.291Z,26.39
2016-11-26T12:14:48.716Z,26.48
2016-11-26T12:16:01.672Z,26.65
2016-11-26T12:17:15.404Z,26.83
2016-11-26T12:18:28.574Z,27
2016-11-26T12:19:42.170Z,26.85
2016-11-26T12:20:55.673Z,26.73
2016-11-26T12:22:09.170Z,26.57
2016-11-26T12:23:22.266Z,26.42
2016-11-26T12:24:35.794Z,26.38
2016-11-26T12:25:48.334Z,26.58
2016-11-26T12:27:01.869Z,26.75
2016-11-26T12:28:14.922Z,26.89
2016-11-26T12:29:28.011Z,27.07
2016-11-26T12:30:41.612Z,27.2
2016-11-26T12:31:54.112Z,27.17
2016-11-26T12:33:07.696Z,27.34
2016-11-26T12:34:20.241Z,27.47
2016-11-26T12:35:32.745Z,27.66
2016-11-26T12:36:45.805Z,27.66
2016-11-26T12:37:57.849Z,27.66
2016-11-26T12:39:10.906Z,27.58
2016-11-26T12:40:24.431Z,27.6
2016-11-26T12:41:36.951Z,27.42
2016-11-26T12:42:50.466Z,27.32
2016-11-26T12:44:02.935Z,27.22
2016-11-26T12:45:16.433Z,27.03
2016-11-26T12:46:29.428Z,27.03
2016-11-26T12:47:41.942Z,27.08
2016-11-26T12:48:55.026Z,27.17
2016-11-26T12:50:06.429Z,27.31
2016-11-26T12:51:18.347Z,27.63
2016-11-26T12:52:31.883Z,27.72
2016-11-26T12:53:44.860Z,27.95
2016-11-26T12:54:57.900Z,28
2016-11-26T12:56:10.898Z,27.95
2016-11-26T12:57:23.913Z,28.06
2016-11-26T12:58:36.939Z,28.19
2016-11-26T12:59:49.478Z,28.09
2016-11-26T13:01:01.971Z,28.16
2016-11-26T13:02:15.025Z,28.16
2016-11-26T13:03:28.570Z,28.06
2016-11-26T13:04:41.601Z,27.78
2016-11-26T13:05:54.645Z,27.58
2016-11-26T13:07:07.672Z,27.53
2016-11-26T13:08:20.680Z,27.53
2016-11-26T13:09:34.267Z,27.61
2016-11-26T13:10:47.285Z,27.69
2016-11-26T13:12:00.301Z,27.97
2016-11-26T13:13:12.237Z,28.16
2016-11-26T13:14:25.835Z,28.43
2016-11-26T13:15:38.840Z,28.66
2016-11-26T13:16:51.873Z,28.91
2016-11-26T13:18:04.346Z,29.28
2016-11-26T13:19:17.402Z,29.28
2016-11-26T13:20:29.892Z,29.5
2016-11-26T13:21:42.324Z,29.91
2016-11-26T13:22:55.344Z,29.98
2016-11-26T13:24:07.306Z,30.07
2016-11-26T13:25:19.787Z,29.95
2016-11-26T13:26:32.255Z,29.89
2016-11-26T13:27:45.221Z,29.91
2016-11-26T13:28:58.180Z,30.07
2016-11-26T13:30:11.213Z,30.07
2016-11-26T13:31:24.274Z,29.93
2016-11-26T13:32:37.805Z,29.91
2016-11-26T13:33:50.862Z,30.13
2016-11-26T13:35:03.356Z,30.2
2016-11-26T13:36:15.890Z,30.36
2016-11-26T13:37:29.489Z,30.52
2016-11-26T13:38:41.981Z,30.39
2016-11-26T13:39:54.411Z,30.21
2016-11-26T13:41:05.932Z,29.78
2016-11-26T13:42:17.855Z,29.59
2016-11-26T13:43:29.293Z,29.43
2016-11-26T13:44:41.782Z,29.43
2016-11-26T13:45:54.268Z,29.44
2016-11-26T13:47:06.768Z,29.59
2016-11-26T13:48:19.832Z,29.78
2016-11-26T13:49:32.371Z,29.93
2016-11-26T13:50:44.845Z,30.14
2016-11-26T13:51:57.846Z,30.36
2016-11-26T13:53:10.881Z,30.52
2016-11-26T13:54:24.417Z,30.62
2016-11-26T13:55:35.873Z,30.86
2016-11-26T13:56:47.872Z,30.74
2016-11-26T13:58:00.935Z,30.48
2016-11-26T13:59:45.084Z,30.64
2016-11-26T14:00:58.637Z,30.83
2016-11-26T14:02:12.163Z,30.9
2016-11-26T14:03:25.197Z,30.62
2016-11-26T14:04:37.685Z,30.37
2016-11-26T14:05:50.746Z,30.39
2016-11-26T14:07:03.275Z,30.11
2016-11-26T14:08:16.745Z,29.92
2016-11-26T14:09:30.265Z,30.1
2016-11-26T14:10:43.304Z,30.29
2016-11-26T14:11:56.892Z,30.55
2016-11-26T14:13:09.396Z,30.7
2016-11-26T14:14:21.925Z,30.83
2016-11-26T14:15:34.940Z,31.08
2016-11-26T14:16:47.414Z,31.12
2016-11-26T14:18:00.455Z,31.04
2016-11-26T14:19:13.575Z,31.15
2016-11-26T14:20:26.098Z,31.22
2016-11-26T14:21:39.618Z,31.33
2016-11-26T14:22:50.500Z,31.56
2016-11-26T14:24:02.976Z,31.51
2016-11-26T14:25:15.507Z,31.56
2016-11-26T14:26:28.042Z,31.48
2016-11-26T14:27:41.640Z,31.44
2016-11-26T14:28:55.242Z,31.45
2016-11-26T14:30:08.306Z,31.57
2016-11-26T14:31:21.293Z,31.26
2016-11-26T14:32:33.752Z,31.12
2016-11-26T14:33:47.279Z,31.23
2016-11-26T14:35:00.280Z,31.12
2016-11-26T14:36:12.784Z,31.02
2016-11-26T14:37:26.422Z,30.71
2016-11-26T14:38:39.519Z,30.52
2016-11-26T14:39:53.058Z,30.36
2016-11-26T14:41:06.605Z,29.98
2016-11-26T14:42:20.143Z,29.89
2016-11-26T14:43:33.209Z,29.93
2016-11-26T14:44:45.679Z,30
2016-11-26T14:45:58.678Z,30.02
2016-11-26T14:47:11.679Z,30.02
2016-11-26T14:48:24.129Z,29.83
2016-11-26T14:49:37.681Z,29.83
2016-11-26T14:50:51.226Z,29.84
2016-11-26T14:52:03.731Z,29.77
2016-11-26T14:53:17.218Z,29.63
2016-11-26T14:54:30.773Z,29.63
2016-11-26T14:55:43.759Z,29.58
2016-11-26T14:56:56.300Z,29.55
2016-11-26T14:58:09.794Z,29.5
2016-11-26T14:59:21.819Z,29.52
2016-11-26T15:00:35.359Z,29.56
2016-11-26T15:01:48.956Z,29.65
2016-11-26T15:03:01.956Z,29.66
2016-11-26T15:04:14.985Z,29.73
2016-11-26T15:05:28.566Z,29.7
2016-11-26T15:06:42.158Z,29.66
2016-11-26T15:07:55.185Z,29.63
2016-11-26T15:09:08.796Z,29.68
2016-11-26T15:10:21.226Z,29.71
2016-11-26T15:11:34.747Z,29.8
2016-11-26T15:12:47.809Z,29.8
2016-11-26T15:14:00.885Z,29.8
2016-11-26T15:15:13.933Z,29.71
2016-11-26T15:16:26.983Z,29.62
2016-11-26T15:17:39.484Z,29.81
2016-11-26T15:18:53.060Z,29.73
2016-11-26T15:20:06.598Z,29.74
2016-11-26T15:21:19.609Z,29.77
2016-11-26T15:22:32.639Z,29.78
2016-11-26T15:23:46.205Z,29.89
2016-11-26T15:24:59.784Z,29.81
2016-11-26T15:26:13.365Z,29.77
2016-11-26T15:27:26.937Z,29.63
2016-11-26T15:28:39.479Z,29.66
2016-11-26T15:29:51.948Z,29.65
2016-11-26T15:31:04.427Z,29.77
2016-11-26T15:32:16.896Z,29.77
2016-11-26T15:33:30.374Z,29.83
2016-11-26T15:34:42.852Z,29.89
2016-11-26T15:35:55.327Z,29.84
2016-11-26T15:37:07.823Z,29.84
2016-11-26T15:38:20.261Z,29.91
2016-11-26T15:39:32.729Z,29.98
2016-11-26T15:40:44.631Z,30.2
2016-11-26T15:41:56.617Z,30.28
2016-11-26T15:43:10.173Z,30.51
2016-11-26T15:44:54.321Z,30.59
2016-11-26T15:46:07.452Z,30.37
2016-11-26T15:47:20.503Z,30.15
2016-11-26T15:48:33.503Z,30.07
2016-11-26T15:49:46.535Z,30.17
2016-11-26T15:50:59.543Z,30.14
2016-11-26T15:52:12.508Z,30.21
2016-11-26T15:53:25.520Z,30.18
2016-11-26T15:54:38.547Z,30.1
2016-11-26T15:55:52.022Z,30.15
2016-11-26T15:57:04.532Z,30.18
2016-11-26T15:58:16.588Z,30.2
2016-11-26T15:59:29.626Z,30.29
2016-11-26T16:00:43.200Z,30.26
2016-11-26T16:01:56.232Z,30.37
2016-11-26T16:03:09.801Z,30.49
2016-11-26T16:04:23.274Z,30.45
2016-11-26T16:05:35.728Z,30.4
2016-11-26T16:06:48.752Z,30.4
2016-11-26T16:08:00.665Z,30.52
2016-11-26T16:09:13.665Z,30.62
2016-11-26T16:10:26.699Z,30.67
2016-11-26T16:11:39.678Z,30.62
2016-11-26T16:12:51.662Z,30.55
2016-11-26T16:14:04.656Z,30.64
2016-11-26T16:15:16.556Z,30.73